sensor_id;sensor_type;location;lat;lon;timestamp;P1;durP1;ratioP1;P2;durP2;ratioP2
51957;SDS011;41120;51.820;20.804;2023-05-10T00:03:21;10.75;;;4.32;;
51957;SDS011;41120;51.820;20.804;2023-05-10T00:06:06;9.93;;;4.40;;
51957;SDS011;41120;51.820;20.804;2023-05-10T00:08:39;7.50;;;4.47;;
51957;SDS011;41120;51.820;20.804;2023-05-10T00:11:06;7.15;;;4.55;;
51957;SDS011;41120;51.820;20.804;2023-05-10T00:13:40;6.10;;;4.32;;
51957;SDS011;41120;51.820;20.804;2023-05-10T00:16:12;7.18;;;4.80;;
51957;SDS011;41120;51.820;20.804;2023-05-10T00:21:30;6.55;;;4.53;;
51957;SDS011;41120;51.820;20.804;2023-05-10T00:24:03;6.88;;;4.65;;
51957;SDS011;41120;51.820;20.804;2023-05-10T00:29:29;7.07;;;4.32;;
51957;SDS011;41120;51.820;20.804;2023-05-10T00:31:57;8.55;;;5.05;;
51957;SDS011;41120;51.820;20.804;2023-05-10T00:34:23;7.63;;;5.07;;
51957;SDS011;41120;51.820;20.804;2023-05-10T00:42:52;7.97;;;5.22;;
51957;SDS011;41120;51.820;20.804;2023-05-10T00:45:19;7.63;;;4.80;;
51957;SDS011;41120;51.820;20.804;2023-05-10T00:47:46;9.50;;;4.93;;
51957;SDS011;41120;51.820;20.804;2023-05-10T00:50:12;9.82;;;5.15;;
51957;SDS011;41120;51.820;20.804;2023-05-10T00:52:55;8.18;;;5.32;;
51957;SDS011;41120;51.820;20.804;2023-05-10T00:55:35;9.80;;;5.30;;
51957;SDS011;41120;51.820;20.804;2023-05-10T00:58:07;11.63;;;5.90;;
51957;SDS011;41120;51.820;20.804;2023-05-10T01:03:12;7.75;;;4.95;;
51957;SDS011;41120;51.820;20.804;2023-05-10T01:05:38;8.32;;;4.70;;
51957;SDS011;41120;51.820;20.804;2023-05-10T01:08:08;9.60;;;5.53;;
51957;SDS011;41120;51.820;20.804;2023-05-10T01:10:36;10.50;;;5.80;;
51957;SDS011;41120;51.820;20.804;2023-05-10T01:15:40;10.77;;;5.57;;
51957;SDS011;41120;51.820;20.804;2023-05-10T01:41:40;12.93;;;5.82;;
51957;SDS011;41120;51.820;20.804;2023-05-10T01:49:50;11.50;;;5.97;;
51957;SDS011;41120;51.820;20.804;2023-05-10T02:00:44;10.85;;;5.75;;
51957;SDS011;41120;51.820;20.804;2023-05-10T02:03:22;10.93;;;6.50;;
51957;SDS011;41120;51.820;20.804;2023-05-10T02:05:55;12.60;;;6.35;;
51957;SDS011;41120;51.820;20.804;2023-05-10T02:08:21;12.02;;;6.20;;
51957;SDS011;41120;51.820;20.804;2023-05-10T02:10:54;10.32;;;6.00;;
51957;SDS011;41120;51.820;20.804;2023-05-10T02:13:21;10.70;;;6.32;;
51957;SDS011;41120;51.820;20.804;2023-05-10T02:15:51;12.30;;;6.93;;
51957;SDS011;41120;51.820;20.804;2023-05-10T02:18:23;11.45;;;6.30;;
51957;SDS011;41120;51.820;20.804;2023-05-10T02:20:49;15.10;;;6.28;;
51957;SDS011;41120;51.820;20.804;2023-05-10T02:23:34;13.40;;;6.53;;
51957;SDS011;41120;51.820;20.804;2023-05-10T02:26:01;17.83;;;7.32;;
51957;SDS011;41120;51.820;20.804;2023-05-10T02:28:32;12.63;;;6.82;;
51957;SDS011;41120;51.820;20.804;2023-05-10T02:31:08;14.25;;;7.40;;
51957;SDS011;41120;51.820;20.804;2023-05-10T02:33:44;11.43;;;6.50;;
51957;SDS011;41120;51.820;20.804;2023-05-10T02:36:24;10.18;;;6.03;;
51957;SDS011;41120;51.820;20.804;2023-05-10T02:38:58;11.02;;;6.50;;
51957;SDS011;41120;51.820;20.804;2023-05-10T02:51:55;10.55;;;5.90;;
51957;SDS011;41120;51.820;20.804;2023-05-10T02:54:30;13.02;;;6.43;;
51957;SDS011;41120;51.820;20.804;2023-05-10T02:57:08;12.65;;;6.65;;
51957;SDS011;41120;51.820;20.804;2023-05-10T02:59:51;11.88;;;5.90;;
51957;SDS011;41120;51.820;20.804;2023-05-10T03:02:23;10.68;;;6.07;;
51957;SDS011;41120;51.820;20.804;2023-05-10T03:04:54;13.43;;;6.53;;
51957;SDS011;41120;51.820;20.804;2023-05-10T03:07:30;10.73;;;6.63;;
51957;SDS011;41120;51.820;20.804;2023-05-10T03:18:42;11.57;;;7.20;;
51957;SDS011;41120;51.820;20.804;2023-05-10T03:21:10;10.38;;;6.07;;
51957;SDS011;41120;51.820;20.804;2023-05-10T03:23:49;11.93;;;6.10;;
51957;SDS011;41120;51.820;20.804;2023-05-10T03:26:23;12.50;;;6.65;;
51957;SDS011;41120;51.820;20.804;2023-05-10T03:28:56;11.15;;;6.18;;
51957;SDS011;41120;51.820;20.804;2023-05-10T03:37:04;10.52;;;6.78;;
51957;SDS011;41120;51.820;20.804;2023-05-10T03:42:19;11.13;;;6.05;;
51957;SDS011;41120;51.820;20.804;2023-05-10T03:44:52;11.93;;;6.28;;
51957;SDS011;41120;51.820;20.804;2023-05-10T03:47:25;10.82;;;5.90;;
51957;SDS011;41120;51.820;20.804;2023-05-10T03:49:51;10.07;;;5.78;;
51957;SDS011;41120;51.820;20.804;2023-05-10T03:52:25;8.85;;;5.18;;
51957;SDS011;41120;51.820;20.804;2023-05-10T03:54:51;12.93;;;5.90;;
51957;SDS011;41120;51.820;20.804;2023-05-10T03:57:21;9.10;;;5.80;;
51957;SDS011;41120;51.820;20.804;2023-05-10T03:59:59;11.63;;;5.50;;
51957;SDS011;41120;51.820;20.804;2023-05-10T04:02:33;12.15;;;5.57;;
51957;SDS011;41120;51.820;20.804;2023-05-10T04:05:01;10.73;;;5.97;;
51957;SDS011;41120;51.820;20.804;2023-05-10T04:10:19;10.02;;;5.88;;
51957;SDS011;41120;51.820;20.804;2023-05-10T04:12:45;9.20;;;5.70;;
51957;SDS011;41120;51.820;20.804;2023-05-10T04:15:14;8.15;;;5.63;;
51957;SDS011;41120;51.820;20.804;2023-05-10T04:17:41;8.70;;;5.22;;
51957;SDS011;41120;51.820;20.804;2023-05-10T04:23:11;9.93;;;5.82;;
51957;SDS011;41120;51.820;20.804;2023-05-10T04:25:47;10.48;;;6.03;;
51957;SDS011;41120;51.820;20.804;2023-05-10T04:28:18;15.45;;;7.03;;
51957;SDS011;41120;51.820;20.804;2023-05-10T04:30:46;11.77;;;7.22;;
51957;SDS011;41120;51.820;20.804;2023-05-10T04:33:22;10.75;;;6.25;;
51957;SDS011;41120;51.820;20.804;2023-05-10T04:38:29;9.55;;;5.25;;
51957;SDS011;41120;51.820;20.804;2023-05-10T04:41:07;10.27;;;5.55;;
51957;SDS011;41120;51.820;20.804;2023-05-10T04:46:22;5.63;;;4.00;;
51957;SDS011;41120;51.820;20.804;2023-05-10T04:48:47;9.10;;;4.63;;
51957;SDS011;41120;51.820;20.804;2023-05-10T04:53:50;9.30;;;4.07;;
51957;SDS011;41120;51.820;20.804;2023-05-10T04:58:52;8.97;;;4.10;;
51957;SDS011;41120;51.820;20.804;2023-05-10T05:06:55;6.40;;;4.00;;
51957;SDS011;41120;51.820;20.804;2023-05-10T05:09:23;6.13;;;3.63;;
51957;SDS011;41120;51.820;20.804;2023-05-10T05:11:52;6.80;;;4.37;;
51957;SDS011;41120;51.820;20.804;2023-05-10T05:14:19;6.07;;;3.43;;
51957;SDS011;41120;51.820;20.804;2023-05-10T05:16:51;6.23;;;4.43;;
51957;SDS011;41120;51.820;20.804;2023-05-10T05:19:17;7.93;;;4.00;;
51957;SDS011;41120;51.820;20.804;2023-05-10T05:24:17;4.40;;;3.30;;
51957;SDS011;41120;51.820;20.804;2023-05-10T05:26:45;5.60;;;2.90;;
51957;SDS011;41120;51.820;20.804;2023-05-10T05:31:45;6.93;;;3.60;;
51957;SDS011;41120;51.820;20.804;2023-05-10T05:34:12;5.63;;;3.50;;
51957;SDS011;41120;51.820;20.804;2023-05-10T05:36:49;4.93;;;3.33;;
51957;SDS011;41120;51.820;20.804;2023-05-10T05:39:23;6.30;;;3.43;;
51957;SDS011;41120;51.820;20.804;2023-05-10T05:42:03;5.53;;;3.43;;
51957;SDS011;41120;51.820;20.804;2023-05-10T05:44:28;5.73;;;3.20;;
51957;SDS011;41120;51.820;20.804;2023-05-10T05:47:13;9.70;;;3.27;;
51957;SDS011;41120;51.820;20.804;2023-05-10T05:58:13;5.07;;;2.67;;
51957;SDS011;41120;51.820;20.804;2023-05-10T06:00:40;5.05;;;3.05;;
51957;SDS011;41120;51.820;20.804;2023-05-10T06:03:07;5.10;;;2.60;;
51957;SDS011;41120;51.820;20.804;2023-05-10T06:05:35;4.57;;;2.63;;
51957;SDS011;41120;51.820;20.804;2023-05-10T06:11:03;4.93;;;2.57;;
51957;SDS011;41120;51.820;20.804;2023-05-10T06:13:47;6.43;;;2.63;;
51957;SDS011;41120;51.820;20.804;2023-05-10T06:16:14;6.23;;;2.57;;
51957;SDS011;41120;51.820;20.804;2023-05-10T06:18:41;4.27;;;2.40;;
51957;SDS011;41120;51.820;20.804;2023-05-10T06:21:13;4.87;;;2.80;;
51957;SDS011;41120;51.820;20.804;2023-05-10T06:23:53;4.00;;;2.23;;
51957;SDS011;41120;51.820;20.804;2023-05-10T06:26:36;5.17;;;2.97;;
51957;SDS011;41120;51.820;20.804;2023-05-10T06:29:03;3.80;;;2.50;;
51957;SDS011;41120;51.820;20.804;2023-05-10T06:31:28;7.33;;;2.47;;
51957;SDS011;41120;51.820;20.804;2023-05-10T06:33:57;4.20;;;2.20;;
51957;SDS011;41120;51.820;20.804;2023-05-10T06:36:40;5.77;;;2.77;;
51957;SDS011;41120;51.820;20.804;2023-05-10T06:41:41;4.28;;;2.42;;
51957;SDS011;41120;51.820;20.804;2023-05-10T06:44:09;4.20;;;2.23;;
51957;SDS011;41120;51.820;20.804;2023-05-10T06:46:42;4.23;;;2.13;;
51957;SDS011;41120;51.820;20.804;2023-05-10T06:49:14;3.20;;;2.10;;
51957;SDS011;41120;51.820;20.804;2023-05-10T06:51:40;4.07;;;2.20;;
51957;SDS011;41120;51.820;20.804;2023-05-10T06:54:13;5.03;;;2.37;;
51957;SDS011;41120;51.820;20.804;2023-05-10T06:56:58;5.77;;;2.30;;
51957;SDS011;41120;51.820;20.804;2023-05-10T06:59:26;6.00;;;2.00;;
51957;SDS011;41120;51.820;20.804;2023-05-10T07:02:02;4.47;;;2.50;;
51957;SDS011;41120;51.820;20.804;2023-05-10T07:10:13;4.37;;;2.20;;
51957;SDS011;41120;51.820;20.804;2023-05-10T07:15:35;3.70;;;1.80;;
51957;SDS011;41120;51.820;20.804;2023-05-10T07:21:02;5.90;;;2.03;;
51957;SDS011;41120;51.820;20.804;2023-05-10T07:29:20;3.77;;;1.80;;
51957;SDS011;41120;51.820;20.804;2023-05-10T07:31:48;1.70;;;1.53;;
51957;SDS011;41120;51.820;20.804;2023-05-10T07:34:14;4.30;;;2.03;;
51957;SDS011;41120;51.820;20.804;2023-05-10T07:36:49;4.40;;;1.90;;
51957;SDS011;41120;51.820;20.804;2023-05-10T07:39:22;5.57;;;1.83;;
51957;SDS011;41120;51.820;20.804;2023-05-10T07:41:54;5.37;;;1.93;;
51957;SDS011;41120;51.820;20.804;2023-05-10T07:44:25;2.22;;;1.60;;
51957;SDS011;41120;51.820;20.804;2023-05-10T07:46:52;2.70;;;1.80;;
51957;SDS011;41120;51.820;20.804;2023-05-10T07:49:25;2.80;;;1.50;;
51957;SDS011;41120;51.820;20.804;2023-05-10T07:51:57;2.47;;;1.80;;
51957;SDS011;41120;51.820;20.804;2023-05-10T07:54:24;5.23;;;1.77;;
51957;SDS011;41120;51.820;20.804;2023-05-10T07:56:53;3.90;;;2.00;;
51957;SDS011;41120;51.820;20.804;2023-05-10T07:59:19;3.90;;;2.00;;
51957;SDS011;41120;51.820;20.804;2023-05-10T08:01:48;2.07;;;1.57;;
51957;SDS011;41120;51.820;20.804;2023-05-10T08:04:14;3.23;;;1.50;;
51957;SDS011;41120;51.820;20.804;2023-05-10T08:06:42;2.40;;;1.83;;
51957;SDS011;41120;51.820;20.804;2023-05-10T08:11:41;2.57;;;2.00;;
51957;SDS011;41120;51.820;20.804;2023-05-10T08:14:16;3.30;;;1.60;;
51957;SDS011;41120;51.820;20.804;2023-05-10T08:16:59;3.67;;;1.80;;
51957;SDS011;41120;51.820;20.804;2023-05-10T08:21:57;3.57;;;1.50;;
51957;SDS011;41120;51.820;20.804;2023-05-10T08:24:30;3.17;;;1.80;;
51957;SDS011;41120;51.820;20.804;2023-05-10T08:29:29;2.67;;;2.20;;
51957;SDS011;41120;51.820;20.804;2023-05-10T08:31:55;4.13;;;2.03;;
51957;SDS011;41120;51.820;20.804;2023-05-10T08:37:18;5.80;;;1.87;;
51957;SDS011;41120;51.820;20.804;2023-05-10T08:40:03;3.87;;;2.10;;
51957;SDS011;41120;51.820;20.804;2023-05-10T08:53:06;2.90;;;1.80;;
51957;SDS011;41120;51.820;20.804;2023-05-10T08:58:30;3.20;;;1.80;;
51957;SDS011;41120;51.820;20.804;2023-05-10T09:06:32;3.17;;;1.83;;
51957;SDS011;41120;51.820;20.804;2023-05-10T09:09:09;7.30;;;1.70;;
51957;SDS011;41120;51.820;20.804;2023-05-10T09:11:44;4.27;;;1.80;;
51957;SDS011;41120;51.820;20.804;2023-05-10T09:14:13;3.13;;;1.87;;
51957;SDS011;41120;51.820;20.804;2023-05-10T09:22:18;3.07;;;1.83;;
51957;SDS011;41120;51.820;20.804;2023-05-10T09:27:26;3.60;;;2.10;;
51957;SDS011;41120;51.820;20.804;2023-05-10T09:32:57;4.17;;;1.87;;
51957;SDS011;41120;51.820;20.804;2023-05-10T09:38:02;5.93;;;1.73;;
51957;SDS011;41120;51.820;20.804;2023-05-10T09:40:38;2.93;;;1.73;;
51957;SDS011;41120;51.820;20.804;2023-05-10T09:43:15;2.53;;;2.00;;
51957;SDS011;41120;51.820;20.804;2023-05-10T09:45:44;2.60;;;1.70;;
51957;SDS011;41120;51.820;20.804;2023-05-10T09:50:55;3.07;;;1.50;;
51957;SDS011;41120;51.820;20.804;2023-05-10T09:53:21;4.40;;;1.63;;
51957;SDS011;41120;51.820;20.804;2023-05-10T09:59:02;2.83;;;1.70;;
51957;SDS011;41120;51.820;20.804;2023-05-10T10:04:16;3.40;;;1.77;;
51957;SDS011;41120;51.820;20.804;2023-05-10T10:09:38;2.43;;;1.47;;
51957;SDS011;41120;51.820;20.804;2023-05-10T10:12:10;2.97;;;1.90;;
51957;SDS011;41120;51.820;20.804;2023-05-10T10:14:39;6.50;;;1.95;;
51957;SDS011;41120;51.820;20.804;2023-05-10T10:17:18;5.93;;;1.97;;
51957;SDS011;41120;51.820;20.804;2023-05-10T10:19:51;4.67;;;1.60;;
51957;SDS011;41120;51.820;20.804;2023-05-10T10:22:19;3.03;;;1.90;;
51957;SDS011;41120;51.820;20.804;2023-05-10T10:36:03;4.47;;;1.97;;
51957;SDS011;41120;51.820;20.804;2023-05-10T10:55:53;3.27;;;1.80;;
51957;SDS011;41120;51.820;20.804;2023-05-10T11:06:35;4.63;;;1.70;;
51957;SDS011;41120;51.820;20.804;2023-05-10T11:11:57;3.67;;;1.80;;
51957;SDS011;41120;51.820;20.804;2023-05-10T11:14:34;2.97;;;1.30;;
51957;SDS011;41120;51.820;20.804;2023-05-10T11:17:01;2.37;;;1.50;;
51957;SDS011;41120;51.820;20.804;2023-05-10T11:19:35;3.40;;;1.67;;
51957;SDS011;41120;51.820;20.804;2023-05-10T11:25:13;6.00;;;2.00;;
51957;SDS011;41120;51.820;20.804;2023-05-10T11:27:51;1.97;;;1.73;;
51957;SDS011;41120;51.820;20.804;2023-05-10T11:30:19;3.07;;;1.93;;
51957;SDS011;41120;51.820;20.804;2023-05-10T11:32:46;2.27;;;1.60;;
51957;SDS011;41120;51.820;20.804;2023-05-10T11:35:13;3.33;;;2.00;;
51957;SDS011;41120;51.820;20.804;2023-05-10T11:37:40;3.33;;;1.90;;
51957;SDS011;41120;51.820;20.804;2023-05-10T11:40:26;5.80;;;1.90;;
51957;SDS011;41120;51.820;20.804;2023-05-10T11:43:05;6.70;;;1.97;;
51957;SDS011;41120;51.820;20.804;2023-05-10T11:45:37;5.57;;;1.80;;
51957;SDS011;41120;51.820;20.804;2023-05-10T11:48:09;2.10;;;1.60;;
51957;SDS011;41120;51.820;20.804;2023-05-10T11:50:50;3.25;;;1.60;;
51957;SDS011;41120;51.820;20.804;2023-05-10T11:53:19;3.37;;;1.70;;
51957;SDS011;41120;51.820;20.804;2023-05-10T12:01:27;3.40;;;2.03;;
51957;SDS011;41120;51.820;20.804;2023-05-10T12:06:27;4.57;;;2.10;;
51957;SDS011;41120;51.820;20.804;2023-05-10T12:09:04;3.87;;;1.90;;
51957;SDS011;41120;51.820;20.804;2023-05-10T12:11:49;3.30;;;1.80;;
51957;SDS011;41120;51.820;20.804;2023-05-10T12:14:26;4.40;;;1.90;;
51957;SDS011;41120;51.820;20.804;2023-05-10T12:16:59;3.33;;;1.80;;
51957;SDS011;41120;51.820;20.804;2023-05-10T12:19:29;3.43;;;1.60;;
51957;SDS011;41120;51.820;20.804;2023-05-10T12:25:29;5.53;;;2.63;;
51957;SDS011;41120;51.820;20.804;2023-05-10T12:30:52;2.60;;;1.60;;
51957;SDS011;41120;51.820;20.804;2023-05-10T12:33:24;5.53;;;2.10;;
51957;SDS011;41120;51.820;20.804;2023-05-10T12:36:05;5.93;;;2.00;;
51957;SDS011;41120;51.820;20.804;2023-05-10T12:38:43;4.57;;;1.77;;
51957;SDS011;41120;51.820;20.804;2023-05-10T12:41:17;3.07;;;1.67;;
51957;SDS011;41120;51.820;20.804;2023-05-10T12:43:52;2.40;;;1.80;;
51957;SDS011;41120;51.820;20.804;2023-05-10T12:49:03;3.77;;;1.80;;
51957;SDS011;41120;51.820;20.804;2023-05-10T12:51:31;3.33;;;1.53;;
51957;SDS011;41120;51.820;20.804;2023-05-10T12:54:02;3.97;;;1.90;;
51957;SDS011;41120;51.820;20.804;2023-05-10T12:59:15;2.30;;;1.60;;
51957;SDS011;41120;51.820;20.804;2023-05-10T13:04:22;3.10;;;1.70;;
51957;SDS011;41120;51.820;20.804;2023-05-10T13:06:52;6.83;;;1.77;;
51957;SDS011;41120;51.820;20.804;2023-05-10T13:09:20;4.03;;;1.70;;
51957;SDS011;41120;51.820;20.804;2023-05-10T13:14:45;5.20;;;1.80;;
51957;SDS011;41120;51.820;20.804;2023-05-10T13:20:04;5.30;;;1.90;;
51957;SDS011;41120;51.820;20.804;2023-05-10T13:22:30;5.95;;;1.90;;
51957;SDS011;41120;51.820;20.804;2023-05-10T13:27:55;5.63;;;1.93;;
51957;SDS011;41120;51.820;20.804;2023-05-10T13:32:49;2.80;;;1.90;;
51957;SDS011;41120;51.820;20.804;2023-05-10T13:37:46;4.07;;;1.90;;
51957;SDS011;41120;51.820;20.804;2023-05-10T13:40:24;3.63;;;1.77;;
51957;SDS011;41120;51.820;20.804;2023-05-10T13:42:54;4.93;;;2.00;;
51957;SDS011;41120;51.820;20.804;2023-05-10T13:48:14;6.17;;;1.50;;
51957;SDS011;41120;51.820;20.804;2023-05-10T13:50:51;5.00;;;1.80;;
51957;SDS011;41120;51.820;20.804;2023-05-10T13:53:24;3.77;;;1.77;;
51957;SDS011;41120;51.820;20.804;2023-05-10T13:55:50;2.60;;;1.87;;
51957;SDS011;41120;51.820;20.804;2023-05-10T14:00:55;7.63;;;1.87;;
51957;SDS011;41120;51.820;20.804;2023-05-10T14:03:22;4.60;;;1.60;;
51957;SDS011;41120;51.820;20.804;2023-05-10T14:05:55;3.07;;;1.70;;
51957;SDS011;41120;51.820;20.804;2023-05-10T14:08:23;3.93;;;1.90;;
51957;SDS011;41120;51.820;20.804;2023-05-10T14:10:57;2.80;;;1.60;;
51957;SDS011;41120;51.820;20.804;2023-05-10T14:13:24;5.60;;;1.87;;
51957;SDS011;41120;51.820;20.804;2023-05-10T14:18:44;3.30;;;1.80;;
51957;SDS011;41120;51.820;20.804;2023-05-10T14:21:10;5.40;;;2.63;;
51957;SDS011;41120;51.820;20.804;2023-05-10T14:23:50;3.63;;;2.00;;
51957;SDS011;41120;51.820;20.804;2023-05-10T14:26:16;2.10;;;1.60;;
51957;SDS011;41120;51.820;20.804;2023-05-10T14:34:36;3.80;;;1.70;;
51957;SDS011;41120;51.820;20.804;2023-05-10T14:37:13;3.43;;;1.70;;
51957;SDS011;41120;51.820;20.804;2023-05-10T14:39:39;2.53;;;1.83;;
51957;SDS011;41120;51.820;20.804;2023-05-10T14:42:10;5.30;;;1.77;;
51957;SDS011;41120;51.820;20.804;2023-05-10T14:44:40;1.50;;;1.40;;
51957;SDS011;41120;51.820;20.804;2023-05-10T14:47:08;2.07;;;1.77;;
51957;SDS011;41120;51.820;20.804;2023-05-10T14:49:40;4.00;;;1.83;;
51957;SDS011;41120;51.820;20.804;2023-05-10T14:54:52;2.63;;;1.70;;
51957;SDS011;41120;51.820;20.804;2023-05-10T14:57:20;2.07;;;1.60;;
51957;SDS011;41120;51.820;20.804;2023-05-10T15:05:20;3.80;;;1.83;;
51957;SDS011;41120;51.820;20.804;2023-05-10T15:07:50;7.10;;;1.90;;
51957;SDS011;41120;51.820;20.804;2023-05-10T15:15:44;4.93;;;2.20;;
51957;SDS011;41120;51.820;20.804;2023-05-10T15:20:40;3.13;;;1.67;;
51957;SDS011;41120;51.820;20.804;2023-05-10T15:23:06;3.87;;;2.17;;
51957;SDS011;41120;51.820;20.804;2023-05-10T15:28:42;4.23;;;1.90;;
51957;SDS011;41120;51.820;20.804;2023-05-10T15:31:18;5.17;;;1.90;;
51957;SDS011;41120;51.820;20.804;2023-05-10T15:33:57;3.53;;;1.70;;
51957;SDS011;41120;51.820;20.804;2023-05-10T15:36:24;3.27;;;2.10;;
51957;SDS011;41120;51.820;20.804;2023-05-10T15:38:59;3.97;;;1.87;;
51957;SDS011;41120;51.820;20.804;2023-05-10T15:41:26;4.80;;;1.70;;
51957;SDS011;41120;51.820;20.804;2023-05-10T15:43:53;3.20;;;1.77;;
51957;SDS011;41120;51.820;20.804;2023-05-10T15:46:23;2.23;;;1.73;;
51957;SDS011;41120;51.820;20.804;2023-05-10T15:48:50;3.73;;;2.10;;
51957;SDS011;41120;51.820;20.804;2023-05-10T15:51:26;6.30;;;1.93;;
51957;SDS011;41120;51.820;20.804;2023-05-10T15:54:02;2.67;;;1.60;;
51957;SDS011;41120;51.820;20.804;2023-05-10T15:56:37;4.00;;;1.93;;
51957;SDS011;41120;51.820;20.804;2023-05-10T15:59:16;3.20;;;1.80;;
51957;SDS011;41120;51.820;20.804;2023-05-10T16:01:42;3.03;;;1.77;;
51957;SDS011;41120;51.820;20.804;2023-05-10T16:07:22;3.30;;;2.00;;
51957;SDS011;41120;51.820;20.804;2023-05-10T16:09:59;4.17;;;1.80;;
51957;SDS011;41120;51.820;20.804;2023-05-10T16:12:29;4.10;;;1.87;;
51957;SDS011;41120;51.820;20.804;2023-05-10T16:17:25;4.70;;;1.97;;
51957;SDS011;41120;51.820;20.804;2023-05-10T16:19:59;3.10;;;1.83;;
51957;SDS011;41120;51.820;20.804;2023-05-10T16:22:28;3.07;;;1.60;;
51957;SDS011;41120;51.820;20.804;2023-05-10T16:25:04;4.93;;;1.70;;
51957;SDS011;41120;51.820;20.804;2023-05-10T16:27:45;3.50;;;1.80;;
51957;SDS011;41120;51.820;20.804;2023-05-10T16:32:42;4.30;;;2.20;;
51957;SDS011;41120;51.820;20.804;2023-05-10T16:35:15;2.47;;;1.80;;
51957;SDS011;41120;51.820;20.804;2023-05-10T16:37:43;3.63;;;1.90;;
51957;SDS011;41120;51.820;20.804;2023-05-10T16:40:20;3.37;;;1.80;;
51957;SDS011;41120;51.820;20.804;2023-05-10T16:43:04;4.63;;;1.80;;
51957;SDS011;41120;51.820;20.804;2023-05-10T16:45:31;2.83;;;1.73;;
51957;SDS011;41120;51.820;20.804;2023-05-10T16:48:04;5.10;;;2.03;;
51957;SDS011;41120;51.820;20.804;2023-05-10T16:50:32;3.87;;;1.80;;
51957;SDS011;41120;51.820;20.804;2023-05-10T16:53:04;3.10;;;2.33;;
51957;SDS011;41120;51.820;20.804;2023-05-10T16:58:05;2.30;;;1.80;;
51957;SDS011;41120;51.820;20.804;2023-05-10T17:00:31;6.00;;;2.70;;
51957;SDS011;41120;51.820;20.804;2023-05-10T17:03:01;4.83;;;3.30;;
51957;SDS011;41120;51.820;20.804;2023-05-10T17:05:28;7.70;;;2.93;;
51957;SDS011;41120;51.820;20.804;2023-05-10T17:07:56;4.13;;;2.30;;
51957;SDS011;41120;51.820;20.804;2023-05-10T17:10:22;4.37;;;2.10;;
51957;SDS011;41120;51.820;20.804;2023-05-10T17:20:54;4.63;;;1.83;;
51957;SDS011;41120;51.820;20.804;2023-05-10T17:23:30;5.67;;;2.10;;
51957;SDS011;41120;51.820;20.804;2023-05-10T17:28:55;6.30;;;2.00;;
51957;SDS011;41120;51.820;20.804;2023-05-10T17:33:56;5.57;;;2.53;;
51957;SDS011;41120;51.820;20.804;2023-05-10T17:36:28;5.77;;;3.17;;
51957;SDS011;41120;51.820;20.804;2023-05-10T17:38:55;5.70;;;2.75;;
51957;SDS011;41120;51.820;20.804;2023-05-10T17:41:22;4.43;;;2.47;;
51957;SDS011;41120;51.820;20.804;2023-05-10T17:43:49;5.40;;;2.53;;
51957;SDS011;41120;51.820;20.804;2023-05-10T17:46:22;6.33;;;2.40;;
51957;SDS011;41120;51.820;20.804;2023-05-10T17:48:49;4.87;;;2.27;;
51957;SDS011;41120;51.820;20.804;2023-05-10T17:51:24;4.50;;;2.30;;
51957;SDS011;41120;51.820;20.804;2023-05-10T17:53:51;3.00;;;2.37;;
51957;SDS011;41120;51.820;20.804;2023-05-10T17:56:34;3.97;;;2.60;;
51957;SDS011;41120;51.820;20.804;2023-05-10T17:58:59;3.83;;;2.30;;
51957;SDS011;41120;51.820;20.804;2023-05-10T18:01:30;8.00;;;3.27;;
51957;SDS011;41120;51.820;20.804;2023-05-10T18:04:07;3.50;;;2.27;;
51957;SDS011;41120;51.820;20.804;2023-05-10T18:09:08;7.80;;;2.60;;
51957;SDS011;41120;51.820;20.804;2023-05-10T18:17:05;3.90;;;2.43;;
51957;SDS011;41120;51.820;20.804;2023-05-10T18:19:31;5.33;;;3.03;;
51957;SDS011;41120;51.820;20.804;2023-05-10T18:24:38;5.83;;;3.43;;
51957;SDS011;41120;51.820;20.804;2023-05-10T18:27:07;5.30;;;2.90;;
51957;SDS011;41120;51.820;20.804;2023-05-10T18:29:42;4.23;;;3.00;;
51957;SDS011;41120;51.820;20.804;2023-05-10T18:32:21;4.63;;;2.60;;
51957;SDS011;41120;51.820;20.804;2023-05-10T18:37:49;5.37;;;2.70;;
51957;SDS011;41120;51.820;20.804;2023-05-10T18:40:21;5.70;;;3.73;;
51957;SDS011;41120;51.820;20.804;2023-05-10T18:42:54;6.60;;;4.00;;
51957;SDS011;41120;51.820;20.804;2023-05-10T18:48:43;5.17;;;3.40;;
51957;SDS011;41120;51.820;20.804;2023-05-10T18:51:22;6.70;;;3.30;;
51957;SDS011;41120;51.820;20.804;2023-05-10T18:53:48;4.23;;;2.77;;
51957;SDS011;41120;51.820;20.804;2023-05-10T18:59:12;5.40;;;3.17;;
51957;SDS011;41120;51.820;20.804;2023-05-10T19:01:43;7.13;;;3.43;;
51957;SDS011;41120;51.820;20.804;2023-05-10T19:06:58;6.27;;;3.20;;
51957;SDS011;41120;51.820;20.804;2023-05-10T19:15:13;3.83;;;2.60;;
51957;SDS011;41120;51.820;20.804;2023-05-10T19:17:50;5.87;;;2.60;;
51957;SDS011;41120;51.820;20.804;2023-05-10T19:20:31;5.47;;;3.00;;
51957;SDS011;41120;51.820;20.804;2023-05-10T19:23:05;5.67;;;3.37;;
51957;SDS011;41120;51.820;20.804;2023-05-10T19:25:31;4.80;;;2.77;;
51957;SDS011;41120;51.820;20.804;2023-05-10T19:30:39;6.97;;;3.40;;
51957;SDS011;41120;51.820;20.804;2023-05-10T19:33:05;7.07;;;3.33;;
51957;SDS011;41120;51.820;20.804;2023-05-10T19:35:35;7.50;;;3.10;;
51957;SDS011;41120;51.820;20.804;2023-05-10T19:38:02;8.40;;;3.80;;
51957;SDS011;41120;51.820;20.804;2023-05-10T19:40:28;9.17;;;3.53;;
51957;SDS011;41120;51.820;20.804;2023-05-10T19:43:08;9.30;;;3.90;;
51957;SDS011;41120;51.820;20.804;2023-05-10T19:45:41;9.00;;;3.53;;
51957;SDS011;41120;51.820;20.804;2023-05-10T19:48:08;6.73;;;3.43;;
51957;SDS011;41120;51.820;20.804;2023-05-10T19:50:36;7.97;;;3.60;;
51957;SDS011;41120;51.820;20.804;2023-05-10T19:53:04;7.63;;;3.30;;
51957;SDS011;41120;51.820;20.804;2023-05-10T19:55:33;8.03;;;3.67;;
51957;SDS011;41120;51.820;20.804;2023-05-10T20:00:30;6.67;;;3.60;;
51957;SDS011;41120;51.820;20.804;2023-05-10T20:02:59;6.47;;;3.57;;
51957;SDS011;41120;51.820;20.804;2023-05-10T20:05:27;10.10;;;4.03;;
51957;SDS011;41120;51.820;20.804;2023-05-10T20:10:32;7.47;;;3.40;;
51957;SDS011;41120;51.820;20.804;2023-05-10T20:13:00;9.32;;;3.17;;
51957;SDS011;41120;51.820;20.804;2023-05-10T20:18:06;8.20;;;3.25;;
51957;SDS011;41120;51.820;20.804;2023-05-10T20:20:33;6.43;;;3.00;;
51957;SDS011;41120;51.820;20.804;2023-05-10T20:23:01;6.28;;;3.50;;
51957;SDS011;41120;51.820;20.804;2023-05-10T20:25:27;5.45;;;3.47;;
51957;SDS011;41120;51.820;20.804;2023-05-10T20:28:01;8.00;;;3.70;;
51957;SDS011;41120;51.820;20.804;2023-05-10T20:30:32;5.10;;;3.20;;
51957;SDS011;41120;51.820;20.804;2023-05-10T20:32:58;13.77;;;3.83;;
51957;SDS011;41120;51.820;20.804;2023-05-10T20:35:37;4.97;;;3.30;;
51957;SDS011;41120;51.820;20.804;2023-05-10T20:38:11;7.28;;;3.20;;
51957;SDS011;41120;51.820;20.804;2023-05-10T20:43:36;4.65;;;2.70;;
51957;SDS011;41120;51.820;20.804;2023-05-10T20:46:08;5.68;;;3.33;;
51957;SDS011;41120;51.820;20.804;2023-05-10T20:48:35;5.30;;;3.22;;
51957;SDS011;41120;51.820;20.804;2023-05-10T20:51:11;9.52;;;3.05;;
51957;SDS011;41120;51.820;20.804;2023-05-10T20:53:38;7.00;;;2.83;;
51957;SDS011;41120;51.820;20.804;2023-05-10T20:58:50;7.80;;;3.13;;
51957;SDS011;41120;51.820;20.804;2023-05-10T21:01:16;7.72;;;3.47;;
51957;SDS011;41120;51.820;20.804;2023-05-10T21:03:44;4.88;;;3.22;;
51957;SDS011;41120;51.820;20.804;2023-05-10T21:06:12;4.68;;;3.33;;
51957;SDS011;41120;51.820;20.804;2023-05-10T21:08:38;8.27;;;3.80;;
51957;SDS011;41120;51.820;20.804;2023-05-10T21:11:22;4.65;;;3.28;;
51957;SDS011;41120;51.820;20.804;2023-05-10T21:16:19;6.88;;;3.83;;